Time;durP1;ratioP1;P1;durP2;ratioP2;P2;SDS_P1;SDS_P2;PMS_P1;PMS_P2;Temp;Humidity;BMP_temperature;BMP_pressure;BME280_temperature;BME280_humidity;BME280_pressure;Samples;Min_cycle;Max_cycle;Signal;HPM_P1;HPM_P2
2021/12/10 00:00:23;;;;;;;7.00;6.30;;;7.50;99.70;;;;;;4896230;29;20448;-70
2021/12/10 00:02:49;;;;;;;6.87;6.20;;;7.50;99.70;;;;;;4892622;29;20935;-69
2021/12/10 00:05:23;;;;;;;6.80;6.20;;;7.40;99.70;;;;;;4878176;29;20842;-69
2021/12/10 00:07:50;;;;;;;7.23;6.53;;;6.90;99.90;;;;;;4893121;29;20529;-69
2021/12/10 00:10:22;;;;;;;6.93;6.23;;;6.80;99.90;;;;;;4878284;29;20466;-69
2021/12/10 00:12:51;;;;;;;8.33;7.23;;;6.80;99.90;;;;;;4896523;29;20433;-69
2021/12/10 00:15:25;;;;;;;7.37;6.73;;;6.90;99.90;;;;;;4897164;29;20422;-69
2021/12/10 00:17:53;;;;;;;6.60;5.83;;;7.10;99.90;;;;;;4896953;29;20455;-69
2021/12/10 00:20:23;;;;;;;7.23;6.63;;;7.10;99.90;;;;;;4880224;29;20429;-69
2021/12/10 00:23:02;;;;;;;7.20;6.50;;;7.20;99.90;;;;;;4896685;29;20918;-69
2021/12/10 00:25:35;;;;;;;13.10;8.40;;;7.20;99.90;;;;;;4896111;29;20402;-69
2021/12/10 00:28:13;;;;;;;8.10;6.97;;;7.20;99.90;;;;;;4898773;29;20457;-69
2021/12/10 00:30:54;;;;;;;8.20;7.40;;;7.20;99.90;;;;;;4899198;29;20478;-69
2021/12/10 00:33:24;;;;;;;7.83;7.03;;;7.20;99.90;;;;;;4900176;29;20504;-69
2021/12/10 00:35:52;;;;;;;8.40;7.30;;;7.30;99.90;;;;;;4900228;29;20888;-69
2021/12/10 00:38:17;;;;;;;8.40;7.53;;;7.20;99.90;;;;;;4900505;29;20426;-69
2021/12/10 00:40:44;;;;;;;9.13;8.27;;;7.20;99.90;;;;;;4898150;29;20433;-69
2021/12/10 00:43:10;;;;;;;8.57;7.70;;;7.10;99.90;;;;;;4899988;29;20440;-68
2021/12/10 00:45:36;;;;;;;8.57;7.63;;;7.10;99.90;;;;;;4899439;29;20459;-69
2021/12/10 00:48:03;;;;;;;8.73;7.60;;;6.90;99.90;;;;;;4882790;29;20888;-69
2021/12/10 00:50:42;;;;;;;7.87;7.27;;;6.90;99.90;;;;;;4898986;29;20870;-69
2021/12/10 00:53:08;;;;;;;7.33;6.73;;;6.80;99.90;;;;;;4899822;29;20430;-69
2021/12/10 00:55:34;;;;;;;8.77;7.87;;;6.50;99.90;;;;;;4899185;29;20421;-69
2021/12/10 00:58:00;;;;;;;8.37;7.67;;;6.40;99.90;;;;;;4899851;29;20446;-69
2021/12/10 01:00:40;;;;;;;7.70;6.93;;;6.50;99.90;;;;;;4882826;29;20421;-76
2021/12/10 01:03:09;;;;;;;7.17;6.57;;;6.80;99.90;;;;;;4896723;29;20483;-69
2021/12/10 01:05:37;;;;;;;7.10;6.50;;;6.90;99.90;;;;;;4882326;29;20532;-69
2021/12/10 01:08:03;;;;;;;7.83;7.13;;;6.90;99.90;;;;;;4899472;29;20501;-69
2021/12/10 01:10:44;;;;;;;7.97;7.10;;;7.00;99.90;;;;;;4899088;29;20787;-69
2021/12/10 01:13:15;;;;;;;8.20;6.87;;;7.00;99.90;;;;;;4883008;29;20808;-69
2021/12/10 01:25:06;;;;;;;7.13;6.53;;;7.30;99.90;;;;;;4899605;29;20410;-69
2021/12/10 01:27:24;;;;;;;8.30;7.43;;;7.00;99.90;;;;;;4893720;29;20432;-69
2021/12/10 01:29:52;;;;;;;9.50;7.03;;;6.80;99.90;;;;;;4881881;29;20426;-69
2021/12/10 01:32:18;;;;;;;7.87;7.07;;;6.90;99.90;;;;;;4899496;29;20456;-69
2021/12/10 01:34:44;;;;;;;7.47;6.67;;;6.80;99.90;;;;;;4898293;29;20599;-69
2021/12/10 01:37:11;;;;;;;7.37;6.73;;;6.80;99.90;;;;;;4899294;29;20276;-69
2021/12/10 01:39:39;;;;;;;7.27;6.67;;;6.70;99.90;;;;;;4881057;29;20429;-69
2021/12/10 01:42:46;;;;;;;8.27;7.37;;;6.80;99.90;;;;;;4898731;29;20774;-69
2021/12/10 01:45:04;;;;;;;9.30;7.70;;;6.70;99.90;;;;;;4898785;29;20464;-69
2021/12/10 01:47:34;;;;;;;8.10;7.30;;;6.70;99.90;;;;;;4898314;29;20416;-69
2021/12/10 01:50:00;;;;;;;8.17;7.37;;;6.60;99.90;;;;;;4899025;29;21001;-69
2021/12/10 01:52:27;;;;;;;6.70;6.10;;;6.60;99.90;;;;;;4898821;29;20453;-75
2021/12/10 01:54:56;;;;;;;7.93;7.13;;;6.60;99.90;;;;;;4898317;29;20519;-69
2021/12/10 01:57:27;;;;;;;8.00;7.30;;;6.60;99.90;;;;;;4898628;29;20968;-69
2021/12/10 01:59:53;;;;;;;7.63;6.47;;;6.70;99.90;;;;;;4898083;29;20441;-69
2021/12/10 02:02:23;;;;;;;7.17;6.50;;;6.40;99.90;;;;;;4898609;29;20929;-69
2021/12/10 02:04:51;;;;;;;6.80;6.10;;;6.60;99.90;;;;;;4898220;29;20467;-69
2021/12/10 02:07:24;;;;;;;7.50;6.80;;;6.60;99.90;;;;;;4881891;29;20451;-69
2021/12/10 02:09:50;;;;;;;6.93;6.33;;;6.60;99.90;;;;;;4897986;29;20426;-69
2021/12/10 02:12:18;;;;;;;7.67;6.97;;;6.70;99.90;;;;;;4912874;29;20428;-69
2021/12/10 02:14:46;;;;;;;6.43;5.83;;;6.70;99.90;;;;;;4897752;29;20413;-69
2021/12/10 02:17:12;;;;;;;8.70;6.80;;;6.70;99.90;;;;;;4898258;29;20426;-69
2021/12/10 02:19:39;;;;;;;7.00;6.33;;;6.80;99.90;;;;;;4896978;29;20488;-70
2021/12/10 02:22:06;;;;;;;7.07;6.37;;;6.80;99.90;;;;;;4898200;29;20902;-69
2021/12/10 02:24:33;;;;;;;6.13;5.40;;;6.90;99.90;;;;;;4880872;29;20705;-73
2021/12/10 02:27:01;;;;;;;9.30;7.80;;;7.00;99.90;;;;;;4898071;29;20889;-69
2021/12/10 02:29:30;;;;;;;8.30;6.37;;;7.00;99.90;;;;;;4881359;29;20476;-69
2021/12/10 02:31:56;;;;;;;7.27;6.57;;;6.80;99.90;;;;;;4897739;29;20429;-69
2021/12/10 02:34:23;;;;;;;6.43;5.83;;;6.90;99.90;;;;;;4881542;29;20432;-69
2021/12/10 02:36:50;;;;;;;6.20;5.60;;;7.00;99.90;;;;;;4897118;29;21033;-69
2021/12/10 02:39:20;;;;;;;6.47;5.30;;;7.10;99.90;;;;;;4897573;29;20839;-69
2021/12/10 02:41:47;;;;;;;15.30;5.87;;;6.50;99.90;;;;;;4897354;29;20440;-68
2021/12/10 02:44:18;;;;;;;5.10;4.60;;;6.50;99.90;;;;;;4898004;29;20419;-69
2021/12/10 02:46:44;;;;;;;5.77;5.20;;;6.70;99.90;;;;;;4896876;29;20499;-69
2021/12/10 02:49:12;;;;;;;5.37;4.77;;;6.80;99.90;;;;;;4897465;29;20464;-69
2021/12/10 02:51:38;;;;;;;5.23;4.67;;;6.90;99.80;;;;;;4909565;29;20458;-69
2021/12/10 02:54:07;;;;;;;5.37;4.87;;;6.80;99.90;;;;;;4897826;29;20424;-69
2021/12/10 02:56:33;;;;;;;5.70;5.20;;;6.80;99.50;;;;;;4896858;29;21013;-75
2021/12/10 02:59:02;;;;;;;5.93;5.13;;;6.80;99.60;;;;;;4897538;29;20514;-69
2021/12/10 03:01:39;;;;;;;5.40;4.90;;;6.80;99.90;;;;;;4880919;29;20433;-69
2021/12/10 03:04:09;;;;;;;4.90;4.40;;;6.70;99.30;;;;;;4897665;29;20539;-69
2021/12/10 03:06:43;;;;;;;4.63;4.30;;;6.50;99.70;;;;;;4896551;29;20451;-71
2021/12/10 03:09:09;;;;;;;5.30;4.30;;;6.60;99.90;;;;;;4897454;29;20464;-69
2021/12/10 03:11:38;;;;;;;4.70;4.30;;;6.80;99.50;;;;;;4896226;29;20432;-71
2021/12/10 03:14:10;;;;;;;6.43;5.13;;;6.70;99.40;;;;;;4897708;29;20399;-69
2021/12/10 03:16:41;;;;;;;4.53;4.10;;;6.80;99.30;;;;;;4896775;29;20417;-70
2021/12/10 03:19:13;;;;;;;5.33;4.47;;;6.90;99.30;;;;;;4880663;29;20780;-69
2021/12/10 03:21:42;;;;;;;4.40;4.03;;;6.90;99.10;;;;;;4879694;29;20411;-70
2021/12/10 03:24:08;;;;;;;5.63;4.73;;;7.00;98.90;;;;;;4881027;29;20450;-69
2021/12/10 03:26:34;;;;;;;8.73;4.30;;;7.10;98.70;;;;;;4896487;29;20421;-75
2021/12/10 03:28:59;;;;;;;7.50;4.40;;;6.90;98.30;;;;;;4896696;29;20472;-69
2021/12/10 03:31:26;;;;;;;4.83;3.87;;;6.90;98.70;;;;;;4897535;29;20487;-69
2021/12/10 03:33:54;;;;;;;4.17;3.77;;;6.90;98.90;;;;;;4879827;29;20267;-69
2021/12/10 03:36:20;;;;;;;4.30;3.73;;;7.10;98.70;;;;;;4897353;29;20423;-69
2021/12/10 03:38:46;;;;;;;5.60;3.70;;;7.10;98.00;;;;;;4896719;29;20467;-69
2021/12/10 03:41:13;;;;;;;5.03;3.60;;;7.00;97.90;;;;;;4896960;29;20420;-69
2021/12/10 03:43:41;;;;;;;4.73;3.77;;;7.10;97.80;;;;;;4896429;29;20414;-70
2021/12/10 03:46:08;;;;;;;5.07;3.80;;;7.10;97.70;;;;;;4896388;29;20850;-69
2021/12/10 03:48:37;;;;;;;3.90;3.60;;;7.10;97.60;;;;;;4880165;29;20549;-76
2021/12/10 03:51:06;;;;;;;7.13;4.10;;;6.90;97.60;;;;;;4897062;29;20430;-69
2021/12/10 03:53:33;;;;;;;6.43;3.80;;;7.00;98.00;;;;;;4897134;29;20427;-69
2021/12/10 03:56:03;;;;;;;6.70;3.70;;;7.00;97.90;;;;;;4896303;29;20431;-69
2021/12/10 03:58:29;;;;;;;4.67;4.27;;;7.10;97.90;;;;;;4897179;29;20405;-69
2021/12/10 04:00:57;;;;;;;3.73;3.20;;;7.20;97.70;;;;;;4895952;29;20846;-70
2021/12/10 04:03:25;;;;;;;4.17;3.70;;;7.20;97.30;;;;;;4883768;29;20863;-69
2021/12/10 04:05:52;;;;;;;5.23;3.40;;;7.10;97.40;;;;;;4899557;29;20411;-69
2021/12/10 04:08:18;;;;;;;4.30;3.30;;;7.10;97.70;;;;;;4900998;29;20484;-69
2021/12/10 04:10:45;;;;;;;3.27;3.03;;;7.10;97.60;;;;;;4883017;29;20510;-70
2021/12/10 04:13:12;;;;;;;3.90;3.50;;;7.20;97.60;;;;;;4899703;29;20486;-69
2021/12/10 04:15:39;;;;;;;9.50;3.40;;;7.20;97.40;;;;;;4899972;29;20516;-74
2021/12/10 04:18:07;;;;;;;3.50;3.00;;;7.30;97.40;;;;;;4900454;29;20430;-69
2021/12/10 04:20:33;;;;;;;3.03;2.80;;;7.40;97.10;;;;;;4883249;29;20427;-69
2021/12/10 04:23:01;;;;;;;7.90;3.13;;;7.40;96.90;;;;;;4899607;29;20430;-69
2021/12/10 04:25:27;;;;;;;6.60;2.83;;;7.50;96.80;;;;;;4900338;29;20442;-69
2021/12/10 04:28:00;;;;;;;6.57;2.93;;;7.50;96.60;;;;;;4882198;29;20482;-69
2021/12/10 04:30:29;;;;;;;3.27;2.97;;;7.50;96.50;;;;;;4883242;29;20434;-69
2021/12/10 04:32:55;;;;;;;3.63;2.70;;;7.60;96.40;;;;;;4899914;29;21241;-69
2021/12/10 04:35:21;;;;;;;4.90;3.40;;;7.60;96.30;;;;;;4900079;29;20429;-69
2021/12/10 04:37:49;;;;;;;6.40;3.40;;;7.60;96.40;;;;;;4882848;29;20258;-69
2021/12/10 04:40:21;;;;;;;4.37;3.13;;;7.60;96.30;;;;;;4900380;29;20419;-69
2021/12/10 04:42:46;;;;;;;2.97;2.70;;;7.60;96.20;;;;;;4899715;29;20414;-69
2021/12/10 04:45:14;;;;;;;4.70;3.17;;;7.60;95.90;;;;;;4899897;29;20449;-69
2021/12/10 04:47:40;;;;;;;7.50;4.33;;;7.60;96.00;;;;;;4899381;29;20400;-75
2021/12/10 04:50:07;;;;;;;3.60;2.90;;;7.60;95.90;;;;;;4900253;29;20422;-69
2021/12/10 04:52:36;;;;;;;3.20;3.00;;;7.70;95.80;;;;;;4899992;29;20426;-69
2021/12/10 04:55:10;;;;;;;8.73;3.30;;;7.60;95.70;;;;;;4899480;29;20423;-69
2021/12/10 04:57:36;;;;;;;5.97;3.40;;;7.30;95.90;;;;;;4899725;29;20406;-69
2021/12/10 05:00:06;;;;;;;5.57;3.30;;;7.30;96.30;;;;;;4899342;29;20452;-69
2021/12/10 05:02:34;;;;;;;3.70;3.40;;;7.40;96.10;;;;;;4899967;29;20797;-69
2021/12/10 05:05:00;;;;;;;3.20;2.90;;;7.40;95.90;;;;;;4878517;29;20711;-69
2021/12/10 05:07:30;;;;;;;4.50;4.10;;;7.10;96.10;;;;;;4881044;29;20418;-69
2021/12/10 05:09:57;;;;;;;3.17;2.97;;;7.10;96.20;;;;;;4879840;29;20494;-69
2021/12/10 05:12:23;;;;;;;4.47;3.37;;;7.20;96.10;;;;;;4880620;29;20418;-69
2021/12/10 05:14:49;;;;;;;3.30;3.10;;;7.30;96.00;;;;;;4879698;29;20426;-70
2021/12/10 05:17:15;;;;;;;7.93;3.60;;;7.30;95.80;;;;;;4880864;29;20489;-69
2021/12/10 05:19:42;;;;;;;5.20;3.20;;;7.20;95.60;;;;;;4880621;29;20214;-75
2021/12/10 05:22:11;;;;;;;7.13;3.73;;;7.30;95.70;;;;;;4880611;29;20427;-69
2021/12/10 05:24:37;;;;;;;4.60;3.70;;;7.40;95.60;;;;;;4888087;29;20490;-69
2021/12/10 05:27:04;;;;;;;3.40;2.93;;;7.40;95.40;;;;;;4898520;29;20470;-69
2021/12/10 05:29:30;;;;;;;3.17;2.90;;;7.30;95.20;;;;;;4898963;29;20463;-69
2021/12/10 05:31:59;;;;;;;7.07;4.30;;;7.30;95.30;;;;;;4898393;29;20419;-69
2021/12/10 05:34:26;;;;;;;3.50;3.20;;;7.40;95.30;;;;;;4899088;29;20436;-69
2021/12/10 05:36:52;;;;;;;4.27;3.13;;;7.40;95.30;;;;;;4881284;29;20425;-69
2021/12/10 05:39:22;;;;;;;4.20;2.80;;;7.40;95.40;;;;;;4898950;29;20450;-69
2021/12/10 05:41:47;;;;;;;4.20;3.43;;;7.40;95.40;;;;;;4898444;29;20512;-69
2021/12/10 05:44:13;;;;;;;3.27;3.00;;;7.50;95.30;;;;;;4898701;29;20506;-69
2021/12/10 05:46:39;;;;;;;3.00;2.70;;;7.50;95.10;;;;;;4899136;29;20183;-69
2021/12/10 05:49:06;;;;;;;3.30;3.00;;;7.50;95.00;;;;;;4898507;29;20294;-69
2021/12/10 05:51:32;;;;;;;3.80;3.40;;;7.60;95.00;;;;;;4881804;29;20778;-69
2021/12/10 05:53:58;;;;;;;5.23;2.97;;;7.60;95.10;;;;;;4898210;29;20847;-69
2021/12/10 05:56:23;;;;;;;3.43;3.00;;;7.60;94.90;;;;;;4898955;29;20501;-69
2021/12/10 05:58:49;;;;;;;2.80;2.57;;;7.50;94.90;;;;;;4897411;29;20183;-69
2021/12/10 06:01:17;;;;;;;5.30;3.30;;;7.50;95.00;;;;;;4899270;29;20615;-69
2021/12/10 06:03:51;;;;;;;3.53;3.17;;;7.50;94.90;;;;;;4898582;29;20237;-69
2021/12/10 06:06:18;;;;;;;9.70;4.67;;;7.50;94.90;;;;;;4898994;29;20402;-69
2021/12/10 06:08:44;;;;;;;3.80;3.40;;;7.50;94.90;;;;;;4898578;29;20462;-69
2021/12/10 06:11:09;;;;;;;4.30;3.97;;;7.50;95.00;;;;;;4899087;29;20414;-69
2021/12/10 06:13:35;;;;;;;5.03;3.80;;;7.50;94.90;;;;;;4899071;29;20579;-69
2021/12/10 06:16:03;;;;;;;4.90;3.27;;;7.50;94.70;;;;;;4898166;29;20692;-69
2021/12/10 06:18:29;;;;;;;5.63;4.07;;;7.20;94.90;;;;;;4898872;29;20201;-69
2021/12/10 06:20:55;;;;;;;5.97;4.13;;;7.00;95.70;;;;;;4898301;29;20987;-69
2021/12/10 06:23:22;;;;;;;6.77;4.10;;;6.90;96.10;;;;;;4898837;29;20225;-69
2021/12/10 06:25:49;;;;;;;3.77;3.47;;;7.00;96.20;;;;;;4897268;29;20410;-70
2021/12/10 06:28:16;;;;;;;7.17;5.10;;;7.20;95.70;;;;;;4898486;29;20464;-69
2021/12/10 06:30:43;;;;;;;6.03;3.53;;;7.30;95.40;;;;;;4898135;29;20429;-69
2021/12/10 06:33:12;;;;;;;4.47;3.83;;;7.30;95.20;;;;;;4897670;29;20458;-69
2021/12/10 06:35:41;;;;;;;5.40;3.67;;;7.20;95.00;;;;;;4898111;29;20426;-69
2021/12/10 06:38:08;;;;;;;4.37;4.00;;;7.20;95.10;;;;;;4898242;29;20790;-69
2021/12/10 06:40:38;;;;;;;6.17;3.83;;;7.10;95.00;;;;;;4902009;29;20449;-70
2021/12/10 06:43:04;;;;;;;8.00;3.50;;;7.00;95.20;;;;;;4899572;29;20519;-70
2021/12/10 06:45:38;;;;;;;7.17;5.33;;;7.10;95.20;;;;;;5070172;27;1240959;-68
2021/12/10 06:48:06;;;;;;;5.37;3.03;;;7.10;95.20;;;;;;5089564;28;20186;-68
2021/12/10 06:50:36;;;;;;;5.17;3.10;;;6.80;95.10;;;;;;5078168;28;20429;-68
2021/12/10 06:53:03;;;;;;;2.83;2.63;;;6.80;95.70;;;;;;5088697;28;20423;-68
2021/12/10 06:55:30;;;;;;;3.50;3.20;;;6.90;95.40;;;;;;5089268;28;20806;-68
2021/12/10 06:57:56;;;;;;;3.77;3.13;;;6.80;95.40;;;;;;5088808;28;20443;-68
2021/12/10 07:00:29;;;;;;;3.00;2.47;;;6.90;95.40;;;;;;5087980;28;20416;-69
2021/12/10 07:02:55;;;;;;;6.37;5.97;;;7.00;95.30;;;;;;5087508;28;20430;-68
2021/12/10 07:05:21;;;;;;;5.90;5.07;;;7.10;95.10;;;;;;5087013;28;20442;-69
2021/12/10 07:07:47;;;;;;;3.87;3.40;;;7.10;94.80;;;;;;5087353;28;20932;-72
2021/12/10 07:10:15;;;;;;;5.20;4.67;;;7.20;94.50;;;;;;5087980;28;20171;-69
2021/12/10 07:12:42;;;;;;;3.73;2.77;;;7.10;94.40;;;;;;5086904;28;20644;-68
2021/12/10 07:15:11;;;;;;;5.93;3.47;;;7.10;94.60;;;;;;5070148;28;20516;-68
2021/12/10 07:17:42;;;;;;;7.60;2.83;;;7.00;94.70;;;;;;5088260;28;20418;-68
2021/12/10 07:20:11;;;;;;;4.83;2.30;;;7.10;94.60;;;;;;5087190;28;20423;-68
2021/12/10 07:22:37;;;;;;;4.27;2.57;;;7.10;94.40;;;;;;5089393;28;20449;-68
2021/12/10 07:25:05;;;;;;;3.10;2.77;;;7.10;94.30;;;;;;5087755;28;20556;-68
2021/12/10 07:27:30;;;;;;;3.33;2.30;;;7.10;94.10;;;;;;5088725;28;20434;-68
2021/12/10 07:29:57;;;;;;;8.93;5.37;;;7.20;94.20;;;;;;5086150;28;20467;-68
2021/12/10 07:32:23;;;;;;;8.43;3.13;;;7.00;94.20;;;;;;5087972;28;20496;-69
2021/12/10 07:34:48;;;;;;;3.50;3.17;;;7.00;94.30;;;;;;5066717;28;20417;-72
2021/12/10 07:37:14;;;;;;;5.07;4.77;;;7.00;94.20;;;;;;5087425;28;20504;-68
2021/12/10 07:39:40;;;;;;;3.47;2.90;;;7.20;94.30;;;;;;5087249;28;20179;-68
2021/12/10 07:42:07;;;;;;;5.20;4.70;;;7.10;94.10;;;;;;5086324;28;20186;-68
2021/12/10 07:44:37;;;;;;;3.00;2.80;;;7.10;94.20;;;;;;5086713;28;20606;-68
2021/12/10 07:47:05;;;;;;;3.73;3.00;;;7.00;94.00;;;;;;5086470;28;20451;-68
2021/12/10 07:49:32;;;;;;;4.70;4.40;;;6.90;94.30;;;;;;5069945;28;20406;-68
2021/12/10 07:52:00;;;;;;;6.40;3.27;;;6.80;94.40;;;;;;5087116;28;20412;-68
2021/12/10 07:54:26;;;;;;;3.23;2.90;;;6.90;94.50;;;;;;5087097;28;20440;-68
2021/12/10 07:56:53;;;;;;;4.27;3.87;;;6.80;94.60;;;;;;5074341;28;20943;-69
2021/12/10 07:59:19;;;;;;;7.33;3.27;;;6.90;94.40;;;;;;5074882;28;20469;-68
2021/12/10 08:01:45;;;;;;;2.80;2.60;;;6.80;94.40;;;;;;5056847;28;20421;-69
2021/12/10 08:04:11;;;;;;;5.93;3.13;;;6.80;94.60;;;;;;5073275;28;20444;-70
2021/12/10 08:06:37;;;;;;;3.80;2.53;;;6.80;94.60;;;;;;5073283;28;20425;-68
2021/12/10 08:09:06;;;;;;;4.23;3.50;;;6.80;94.40;;;;;;5072755;28;20260;-69
2021/12/10 08:11:32;;;;;;;6.23;2.93;;;6.70;94.40;;;;;;5074634;28;20408;-68
2021/12/10 08:13:58;;;;;;;4.60;4.30;;;6.80;94.70;;;;;;5073866;28;20466;-68
2021/12/10 08:16:25;;;;;;;5.33;4.10;;;6.90;94.40;;;;;;5074904;28;20428;-68
2021/12/10 08:18:52;;;;;;;5.50;4.90;;;7.10;94.20;;;;;;5072569;28;20421;-75
2021/12/10 08:21:19;;;;;;;4.73;2.50;;;7.10;93.90;;;;;;5074554;28;20406;-68
2021/12/10 08:23:44;;;;;;;4.07;2.97;;;7.20;93.90;;;;;;5074190;28;20454;-68
2021/12/10 08:26:12;;;;;;;3.50;2.80;;;7.30;93.60;;;;;;5073922;28;20433;-68
2021/12/10 08:28:39;;;;;;;4.30;3.90;;;7.40;93.50;;;;;;5073731;28;20651;-69
2021/12/10 08:31:06;;;;;;;2.77;2.57;;;7.50;93.50;;;;;;5073617;28;20528;-69
2021/12/10 08:33:32;;;;;;;3.93;3.67;;;7.60;93.30;;;;;;5074078;28;20534;-69
2021/12/10 08:36:05;;;;;;;5.30;2.87;;;7.70;93.10;;;;;;5074181;28;20410;-69
2021/12/10 08:38:31;;;;;;;6.03;2.73;;;7.70;92.80;;;;;;5074562;28;20885;-69
2021/12/10 08:41:02;;;;;;;3.80;3.50;;;7.80;92.70;;;;;;5073521;28;20423;-69
2021/12/10 08:43:29;;;;;;;3.83;3.47;;;7.60;92.40;;;;;;5073851;28;20411;-68
2021/12/10 08:45:55;;;;;;;4.60;3.30;;;7.70;92.90;;;;;;5073373;28;21000;-69
2021/12/10 08:48:23;;;;;;;3.40;3.20;;;7.80;92.30;;;;;;5074301;28;20498;-68
2021/12/10 08:50:51;;;;;;;3.67;3.50;;;8.40;92.70;;;;;;5072741;28;20961;-82
2021/12/10 08:53:17;;;;;;;3.57;3.37;;;9.20;91.00;;;;;;5073521;28;20921;-69
2021/12/10 08:55:46;;;;;;;3.60;3.30;;;10.30;88.60;;;;;;5074176;28;20458;-69
2021/12/10 08:58:13;;;;;;;9.27;8.00;;;11.40;82.70;;;;;;5068428;28;20422;-69
2021/12/10 09:00:42;;;;;;;4.80;4.13;;;12.30;77.20;;;;;;5072353;28;20403;-70
2021/12/10 09:03:08;;;;;;;4.30;3.10;;;12.80;73.50;;;;;;5067946;28;20460;-69
2021/12/10 09:05:35;;;;;;;4.77;3.40;;;12.60;71.70;;;;;;5072855;28;20475;-69
2021/12/10 09:08:01;;;;;;;4.07;2.80;;;12.70;70.80;;;;;;5070922;28;20419;-69
2021/12/10 09:10:31;;;;;;;6.10;2.77;;;11.90;71.50;;;;;;5073407;28;20410;-70
2021/12/10 09:12:57;;;;;;;3.63;3.07;;;12.70;73.00;;;;;;5070581;28;20833;-70
2021/12/10 09:15:25;;;;;;;4.67;3.40;;;13.70;69.80;;;;;;5073111;28;20974;-69
2021/12/10 09:17:52;;;;;;;3.63;3.43;;;14.60;64.30;;;;;;5073216;28;20413;-78
2021/12/10 09:20:28;;;;;;;3.33;3.03;;;14.40;63.10;;;;;;5063700;28;20481;-69
2021/12/10 09:22:54;;;;;;;5.10;4.70;;;15.00;61.80;;;;;;5052915;28;20419;-79
2021/12/10 09:25:21;;;;;;;21.03;15.03;;;15.30;59.90;;;;;;5065954;28;20483;-70
2021/12/10 09:27:47;;;;;;;20.13;16.17;;;16.10;59.40;;;;;;5072508;28;20990;-69
2021/12/10 09:30:18;;;;;;;5.03;4.67;;;16.90;58.20;;;;;;5072385;28;20399;-69
2021/12/10 09:32:45;;;;;;;4.57;4.17;;;17.70;56.10;;;;;;5072937;28;20491;-69
2021/12/10 09:35:12;;;;;;;7.13;3.30;;;18.50;54.20;;;;;;5071937;28;20403;-69
2021/12/10 09:37:40;;;;;;;4.67;4.27;;;18.30;51.80;;;;;;5069929;28;20469;-69
2021/12/10 09:40:12;;;;;;;4.03;3.73;;;17.80;52.00;;;;;;5068262;28;20803;-69
2021/12/10 09:42:39;;;;;;;4.10;3.70;;;18.10;52.50;;;;;;5061458;28;20430;-69
2021/12/10 09:45:06;;;;;;;6.03;5.63;;;17.70;50.90;;;;;;5069258;28;20471;-69
2021/12/10 09:47:32;;;;;;;3.87;3.60;;;18.00;52.40;;;;;;5073418;28;20430;-69
2021/12/10 09:49:58;;;;;;;4.30;3.97;;;18.30;50.90;;;;;;5072521;28;20415;-69
2021/12/10 09:52:26;;;;;;;3.83;3.50;;;17.50;51.60;;;;;;5073192;28;20218;-68
2021/12/10 09:54:53;;;;;;;5.77;5.23;;;17.60;51.30;;;;;;5072635;28;20427;-69
2021/12/10 09:57:26;;;;;;;3.70;3.50;;;18.30;50.50;;;;;;5053093;28;20499;-69
2021/12/10 09:59:53;;;;;;;4.67;4.03;;;18.70;50.30;;;;;;5053090;28;20470;-69
2021/12/10 10:02:21;;;;;;;4.47;3.63;;;19.50;48.20;;;;;;5053016;28;20416;-69
2021/12/10 10:04:51;;;;;;;5.27;4.80;;;18.30;48.50;;;;;;5053849;28;20463;-69
2021/12/10 10:07:24;;;;;;;4.50;4.20;;;18.50;49.50;;;;;;5071935;28;20818;-69
2021/12/10 10:09:54;;;;;;;5.47;5.03;;;18.40;48.80;;;;;;5072811;28;20388;-69
2021/12/10 10:12:29;;;;;;;4.60;3.50;;;18.70;49.00;;;;;;5070045;28;20416;-69
2021/12/10 10:14:55;;;;;;;4.80;4.20;;;19.60;48.20;;;;;;5070229;28;20431;-70
2021/12/10 10:17:22;;;;;;;4.00;3.70;;;19.90;46.90;;;;;;5071156;28;20486;-69
2021/12/10 10:19:50;;;;;;;6.83;4.90;;;19.60;46.60;;;;;;5072632;28;20568;-69
2021/12/10 10:22:24;;;;;;;3.70;3.33;;;18.90;47.10;;;;;;5067953;28;20416;-68
2021/12/10 10:24:52;;;;;;;4.13;3.80;;;18.50;47.90;;;;;;5052583;28;20543;-69
2021/12/10 10:27:28;;;;;;;5.43;4.23;;;18.50;48.30;;;;;;5053133;28;20419;-68
2021/12/10 10:30:12;;;;;;;4.23;3.83;;;18.40;48.30;;;;;;5070865;28;20411;-81
2021/12/10 10:32:40;;;;;;;4.30;3.10;;;18.50;48.50;;;;;;5072078;28;20755;-69
2021/12/10 10:35:09;;;;;;;4.10;3.70;;;17.30;48.30;;;;;;5071183;28;20815;-69
2021/12/10 10:37:35;;;;;;;3.87;3.60;;;16.40;50.40;;;;;;5072015;28;20985;-69
2021/12/10 10:40:04;;;;;;;3.60;3.30;;;15.70;51.40;;;;;;5071732;28;20414;-83
2021/12/10 10:42:31;;;;;;;4.10;3.83;;;15.20;52.40;;;;;;5072404;28;20444;-69
2021/12/10 10:45:05;;;;;;;3.90;3.70;;;14.80;52.90;;;;;;5071628;28;20476;-69
2021/12/10 10:47:32;;;;;;;3.57;3.13;;;14.10;53.60;;;;;;5072612;28;20781;-69
2021/12/10 10:50:11;;;;;;;3.40;3.10;;;14.00;55.20;;;;;;5070711;28;20761;-69
2021/12/10 10:52:38;;;;;;;6.00;4.20;;;13.40;55.30;;;;;;5072664;28;20413;-69
2021/12/10 10:55:10;;;;;;;6.17;4.47;;;13.30;56.40;;;;;;5070653;28;20490;-69
2021/12/10 10:57:37;;;;;;;4.00;3.70;;;12.90;56.40;;;;;;5072414;28;20410;-69
2021/12/10 11:00:32;;;;;;;4.33;3.93;;;12.70;57.20;;;;;;5071839;28;20502;-69
2021/12/10 11:03:08;;;;;;;3.87;3.57;;;12.20;58.00;;;;;;5071777;28;20886;-76
2021/12/10 11:05:42;;;;;;;3.80;3.43;;;12.30;58.50;;;;;;5072319;28;20452;-69
2021/12/10 11:08:08;;;;;;;7.03;4.27;;;12.20;58.80;;;;;;5071673;28;20431;-69
2021/12/10 11:10:40;;;;;;;4.83;4.53;;;12.30;59.10;;;;;;5071030;28;20404;-69
2021/12/10 11:13:10;;;;;;;4.57;4.20;;;12.30;58.80;;;;;;5071522;28;20395;-70
2021/12/10 11:15:38;;;;;;;4.73;2.77;;;12.50;58.50;;;;;;5072297;28;20416;-69
2021/12/10 11:18:03;;;;;;;4.27;2.80;;;12.70;58.00;;;;;;5071596;28;20537;-69
2021/12/10 11:20:34;;;;;;;3.97;3.13;;;12.60;57.40;;;;;;5072161;28;20505;-69
2021/12/10 11:23:06;;;;;;;4.23;3.83;;;12.40;57.30;;;;;;5071695;28;20161;-69
2021/12/10 11:25:43;;;;;;;5.10;3.80;;;12.40;57.90;;;;;;5072152;28;20448;-69
2021/12/10 11:28:17;;;;;;;3.77;3.47;;;12.40;57.70;;;;;;5071487;28;20418;-69
2021/12/10 11:30:48;;;;;;;4.80;2.67;;;12.30;57.80;;;;;;5073089;28;20886;-69
2021/12/10 11:33:17;;;;;;;6.70;2.90;;;12.20;58.50;;;;;;5074827;28;20943;-69
2021/12/10 11:35:48;;;;;;;3.43;3.23;;;12.10;58.60;;;;;;5075873;28;20412;-69
2021/12/10 11:38:25;;;;;;;4.53;2.77;;;12.10;58.90;;;;;;5075271;28;20398;-70
2021/12/10 11:40:56;;;;;;;2.80;2.60;;;11.40;58.80;;;;;;5074345;28;20445;-69
2021/12/10 11:43:44;;;;;;;3.97;2.80;;;11.30;59.60;;;;;;5073907;28;20403;-69
2021/12/10 11:49:08;;;;;;;3.77;3.57;;;11.00;59.90;;;;;;5035026;28;20400;-72
2021/12/10 11:52:04;;;;;;;1.77;1.67;;;10.80;59.70;;;;;;5035617;28;20411;-69
2021/12/10 11:54:38;;;;;;;3.13;2.93;;;10.90;60.70;;;;;;5033771;28;20417;-69
2021/12/10 11:57:17;;;;;;;2.60;2.33;;;10.90;60.90;;;;;;5034950;28;20512;-69
2021/12/10 12:00:03;;;;;;;3.13;2.47;;;10.90;60.70;;;;;;5035094;28;20403;-69
2021/12/10 12:02:32;;;;;;;2.57;2.10;;;10.90;60.70;;;;;;5035628;28;20483;-69
2021/12/10 12:05:06;;;;;;;3.87;2.27;;;10.80;60.30;;;;;;5035179;28;20452;-69
2021/12/10 12:07:38;;;;;;;3.80;3.20;;;10.90;60.60;;;;;;5035342;28;20459;-69
2021/12/10 12:10:21;;;;;;;2.27;1.93;;;11.00;60.40;;;;;;5034700;28;20414;-69
2021/12/10 12:13:04;;;;;;;4.57;4.20;;;11.00;61.30;;;;;;5035164;28;20414;-69
2021/12/10 12:15:44;;;;;;;3.30;2.83;;;11.00;59.70;;;;;;5034757;28;20482;-69
2021/12/10 12:18:22;;;;;;;3.13;2.90;;;10.90;59.70;;;;;;5034354;28;20393;-69
2021/12/10 12:20:58;;;;;;;4.13;3.60;;;10.80;60.10;;;;;;5033610;28;20746;-69
2021/12/10 12:26:22;;;;;;;3.20;3.10;;;10.80;60.10;;;;;;5034328;28;20735;-69
2021/12/10 12:28:55;;;;;;;2.93;2.73;;;11.00;60.80;;;;;;5033883;28;20426;-69
2021/12/10 12:31:30;;;;;;;3.53;3.10;;;11.10;59.50;;;;;;5034015;28;20424;-69
2021/12/10 12:34:24;;;;;;;2.90;2.73;;;11.10;59.80;;;;;;5034832;28;20496;-69
2021/12/10 12:36:49;;;;;;;3.13;2.83;;;11.00;58.90;;;;;;5035033;28;20414;-69
2021/12/10 12:39:30;;;;;;;3.17;3.00;;;10.90;58.70;;;;;;5034099;28;20424;-69
2021/12/10 12:41:57;;;;;;;3.20;3.00;;;11.00;59.20;;;;;;5034711;28;20176;-71
2021/12/10 12:44:27;;;;;;;2.97;2.70;;;10.90;58.90;;;;;;5049325;28;20844;-69
2021/12/10 12:47:14;;;;;;;3.20;2.83;;;11.00;59.50;;;;;;5074348;28;20431;-69
2021/12/10 12:49:48;;;;;;;3.70;3.40;;;10.80;58.90;;;;;;5074517;28;20404;-69
2021/12/10 12:52:38;;;;;;;4.03;3.70;;;10.80;59.90;;;;;;5073794;28;20418;-69
2021/12/10 12:55:18;;;;;;;3.60;3.30;;;10.80;59.70;;;;;;5073878;28;20412;-70
2021/12/10 12:57:48;;;;;;;2.20;1.80;;;10.80;59.50;;;;;;5074308;28;20395;-69
2021/12/10 13:00:30;;;;;;;3.23;2.10;;;10.90;59.90;;;;;;5073675;28;20883;-69
2021/12/10 13:03:07;;;;;;;3.17;2.97;;;10.90;60.40;;;;;;5074202;28;20406;-69
2021/12/10 13:05:38;;;;;;;3.27;2.97;;;10.80;59.10;;;;;;5073905;28;20447;-69
2021/12/10 13:08:11;;;;;;;6.13;4.70;;;10.60;59.40;;;;;;5073210;28;20955;-73
2021/12/10 13:10:40;;;;;;;4.80;2.93;;;10.40;58.80;;;;;;5073708;28;20396;-69
2021/12/10 13:13:12;;;;;;;5.43;4.93;;;10.20;59.50;;;;;;5072704;28;20409;-70
2021/12/10 13:15:39;;;;;;;4.20;3.80;;;10.10;59.80;;;;;;5073809;28;20466;-69
2021/12/10 13:18:08;;;;;;;2.47;2.37;;;10.10;60.00;;;;;;5071983;28;20448;-70